Time;durP1;ratioP1;P1;durP2;ratioP2;P2;SDS_P1;SDS_P2;PMS_P1;PMS_P2;Temp;Humidity;BMP_temperature;BMP_pressure;BME280_temperature;BME280_humidity;BME280_pressure;Samples;Min_cycle;Max_cycle;Signal;HPM_P1;HPM_P2
2022/11/06 00:00:12;;;;;;;13.73;7.30;;;10.10;99.90;;;;;;5003232;28;20085;-40
2022/11/06 00:02:40;;;;;;;13.88;7.65;;;10.10;99.90;;;;;;5002528;28;20046;-40
2022/11/06 00:07:51;;;;;;;14.88;8.00;;;10.10;99.90;;;;;;5007855;28;20133;-40
2022/11/06 00:10:18;;;;;;;15.85;8.23;;;10.10;99.90;;;;;;4999443;28;20082;-41
2022/11/06 00:12:45;;;;;;;15.32;8.45;;;10.10;99.90;;;;;;5010303;28;20089;-41
2022/11/06 00:15:12;;;;;;;13.82;7.95;;;10.10;99.90;;;;;;5007540;28;20081;-40
2022/11/06 00:17:40;;;;;;;16.13;7.97;;;10.00;99.90;;;;;;5006380;28;20124;-41
2022/11/06 00:20:10;;;;;;;19.60;7.32;;;10.00;99.90;;;;;;4992805;28;20140;-41
2022/11/06 00:22:37;;;;;;;14.15;7.72;;;10.00;99.90;;;;;;4992979;28;20104;-41
2022/11/06 00:25:06;;;;;;;20.05;8.80;;;10.00;99.90;;;;;;4992445;28;20466;-41
2022/11/06 00:27:35;;;;;;;19.90;8.63;;;10.00;99.90;;;;;;4993567;28;20495;-40
2022/11/06 00:30:01;;;;;;;17.73;7.88;;;10.00;99.90;;;;;;5001146;28;20505;-40
2022/11/06 00:32:28;;;;;;;17.20;8.50;;;10.00;99.90;;;;;;5010396;28;20081;-41
2022/11/06 00:34:56;;;;;;;15.80;8.55;;;10.00;99.90;;;;;;5009762;28;20058;-41
2022/11/06 00:37:23;;;;;;;13.73;8.40;;;9.90;99.90;;;;;;4985461;28;20093;-41
2022/11/06 00:39:50;;;;;;;13.98;7.40;;;9.90;99.90;;;;;;5011352;28;20142;-41
2022/11/06 00:42:17;;;;;;;18.92;9.15;;;10.00;99.90;;;;;;5011160;28;20081;-40
2022/11/06 00:44:43;;;;;;;16.73;8.27;;;9.90;99.90;;;;;;5012324;28;20112;-41
2022/11/06 00:47:10;;;;;;;17.88;8.57;;;9.90;99.90;;;;;;5008868;28;20054;-40
2022/11/06 00:49:37;;;;;;;11.48;8.10;;;9.90;99.90;;;;;;5010582;28;20544;-41
2022/11/06 00:52:05;;;;;;;21.73;8.55;;;9.90;99.90;;;;;;5011265;28;20073;-40
2022/11/06 00:54:32;;;;;;;11.75;8.10;;;9.90;99.90;;;;;;5009770;28;20062;-41
2022/11/06 00:56:59;;;;;;;17.45;8.45;;;9.90;99.90;;;;;;4998286;28;20572;-40
2022/11/06 00:59:26;;;;;;;14.07;8.63;;;9.90;99.90;;;;;;4998424;28;20078;-40
2022/11/06 01:01:52;;;;;;;17.15;8.55;;;9.90;99.90;;;;;;5029832;28;20572;-41
2022/11/06 01:04:20;;;;;;;20.27;8.93;;;9.80;99.90;;;;;;4993101;28;20573;-40
2022/11/06 01:06:48;;;;;;;15.90;8.10;;;9.90;99.90;;;;;;5011297;28;20147;-41
2022/11/06 01:09:17;;;;;;;20.33;8.48;;;9.90;99.90;;;;;;5004220;28;20148;-39
2022/11/06 01:11:45;;;;;;;16.45;8.32;;;9.90;99.90;;;;;;4976535;28;20050;-40
2022/11/06 01:14:13;;;;;;;15.45;8.88;;;9.80;99.90;;;;;;5008075;28;20081;-39
2022/11/06 01:16:40;;;;;;;19.55;8.95;;;9.90;99.90;;;;;;5011468;28;20107;-38
2022/11/06 01:19:10;;;;;;;16.48;8.95;;;9.80;99.90;;;;;;4996962;28;20045;-38
2022/11/06 01:21:38;;;;;;;15.48;8.50;;;9.80;99.90;;;;;;5011751;28;20054;-37
2022/11/06 01:24:08;;;;;;;18.27;9.27;;;9.80;99.90;;;;;;5002648;28;20466;-37
2022/11/06 01:26:36;;;;;;;17.08;8.65;;;9.70;99.90;;;;;;5001399;28;20058;-37
2022/11/06 01:29:03;;;;;;;16.17;8.65;;;9.80;99.90;;;;;;5003970;28;20491;-37
2022/11/06 01:31:31;;;;;;;17.25;8.85;;;9.70;99.90;;;;;;4986251;28;20042;-37
2022/11/06 01:33:58;;;;;;;19.88;8.07;;;9.70;99.90;;;;;;4996680;28;20483;-36
2022/11/06 01:36:25;;;;;;;21.33;9.30;;;9.70;99.90;;;;;;5007771;28;20081;-36
2022/11/06 01:38:55;;;;;;;14.32;8.38;;;9.70;99.90;;;;;;4993321;28;20054;-37
2022/11/06 01:41:22;;;;;;;22.23;9.52;;;9.70;99.90;;;;;;4978258;28;20203;-36
2022/11/06 01:43:52;;;;;;;18.20;9.43;;;9.60;99.90;;;;;;4995573;28;20583;-37
2022/11/06 01:46:20;;;;;;;18.75;9.48;;;9.70;99.90;;;;;;5005638;28;20058;-38
2022/11/06 01:48:49;;;;;;;17.92;9.48;;;9.70;99.90;;;;;;4995114;28;20486;-38
2022/11/06 01:51:16;;;;;;;19.48;8.95;;;9.60;99.90;;;;;;5012186;28;20502;-39
2022/11/06 01:53:43;;;;;;;22.10;9.65;;;9.60;99.90;;;;;;4997115;28;20491;-38
2022/11/06 01:56:10;;;;;;;15.52;9.45;;;9.60;99.90;;;;;;5007883;28;20058;-39
2022/11/06 01:58:39;;;;;;;18.17;9.20;;;9.60;99.90;;;;;;5003478;28;20046;-40
2022/11/06 02:01:07;;;;;;;20.92;10.50;;;9.60;99.90;;;;;;5012491;28;20081;-38
2022/11/06 02:03:35;;;;;;;18.08;9.40;;;9.60;99.90;;;;;;4994010;28;20065;-38
2022/11/06 02:06:02;;;;;;;18.35;10.18;;;9.60;99.90;;;;;;5013196;28;20099;-38
2022/11/06 02:08:29;;;;;;;14.35;9.40;;;9.60;99.90;;;;;;4995660;28;20077;-38
2022/11/06 02:10:55;;;;;;;19.88;10.70;;;9.60;99.90;;;;;;5013768;28;20568;-37
2022/11/06 02:13:32;;;;;;;21.45;9.40;;;9.50;99.90;;;;;;4996393;28;20132;-37
2022/11/06 02:16:04;;;;;;;15.77;8.77;;;9.50;99.90;;;;;;5013407;28;20041;-37
2022/11/06 02:18:44;;;;;;;21.67;10.25;;;9.50;99.90;;;;;;5009132;28;20042;-37
2022/11/06 02:21:24;;;;;;;21.88;9.55;;;9.50;99.90;;;;;;4994884;28;20065;-36
2022/11/06 02:24:04;;;;;;;19.52;9.88;;;9.50;99.90;;;;;;4996359;28;20045;-37
2022/11/06 02:26:47;;;;;;;19.42;9.65;;;9.40;99.90;;;;;;5013109;28;20074;-38
2022/11/06 02:29:17;;;;;;;19.42;9.30;;;9.40;99.90;;;;;;5008194;28;20488;-37
2022/11/06 02:31:43;;;;;;;16.75;9.70;;;9.50;99.90;;;;;;5009025;28;20069;-37
2022/11/06 02:34:11;;;;;;;17.17;9.95;;;9.50;99.90;;;;;;4996836;28;20045;-38
2022/11/06 02:36:39;;;;;;;16.38;9.32;;;9.40;99.90;;;;;;4996688;28;20140;-38
2022/11/06 02:39:09;;;;;;;17.95;9.70;;;9.40;99.90;;;;;;5010846;28;20136;-38
2022/11/06 02:41:40;;;;;;;19.98;9.02;;;9.50;99.90;;;;;;5013994;28;20053;-38
2022/11/06 02:44:10;;;;;;;21.38;9.65;;;9.40;99.90;;;;;;5012180;28;20145;-39
2022/11/06 02:46:38;;;;;;;16.95;9.50;;;9.40;99.90;;;;;;4976947;28;20137;-38
2022/11/06 02:49:08;;;;;;;30.83;10.40;;;9.50;99.90;;;;;;5009407;28;20052;-39
2022/11/06 02:51:37;;;;;;;15.40;8.75;;;9.50;99.90;;;;;;4995838;28;20095;-38
2022/11/06 02:54:05;;;;;;;20.15;8.88;;;9.40;99.90;;;;;;5013394;28;20112;-39
2022/11/06 02:56:34;;;;;;;17.77;9.20;;;9.40;99.90;;;;;;5003103;28;20108;-39
2022/11/06 02:59:02;;;;;;;14.93;9.20;;;9.40;99.90;;;;;;5003204;28;20601;-39
2022/11/06 03:01:32;;;;;;;15.82;8.77;;;9.40;99.90;;;;;;4996143;28;20494;-39
2022/11/06 03:04:01;;;;;;;21.25;8.90;;;9.40;99.90;;;;;;4976479;28;20054;-39
2022/11/06 03:06:29;;;;;;;22.15;9.63;;;9.40;99.90;;;;;;5000478;28;20085;-39
2022/11/06 03:08:57;;;;;;;17.35;8.80;;;9.50;99.90;;;;;;4992255;28;20113;-38
2022/11/06 03:11:24;;;;;;;17.83;8.65;;;9.40;99.90;;;;;;4992399;28;20251;-38
2022/11/06 03:13:53;;;;;;;17.98;8.52;;;9.50;99.90;;;;;;4995189;28;20128;-39
2022/11/06 03:16:27;;;;;;;18.63;9.00;;;9.40;99.90;;;;;;4996059;28;20127;-40
2022/11/06 03:18:59;;;;;;;20.40;9.20;;;9.40;99.90;;;;;;5013322;28;20462;-38
2022/11/06 03:21:29;;;;;;;21.23;8.43;;;9.40;99.90;;;;;;5012321;28;20129;-39
2022/11/06 03:23:57;;;;;;;22.45;8.70;;;9.40;99.90;;;;;;5011244;28;20077;-38
2022/11/06 03:26:26;;;;;;;19.75;8.35;;;9.40;99.90;;;;;;5012790;28;20058;-38
2022/11/06 03:28:55;;;;;;;22.88;9.18;;;9.40;99.90;;;;;;4994860;28;20063;-38
2022/11/06 03:31:25;;;;;;;20.20;8.77;;;9.40;99.90;;;;;;5012989;28;20104;-39
2022/11/06 03:33:54;;;;;;;15.95;8.63;;;9.40;99.90;;;;;;5013086;28;20053;-38
2022/11/06 03:36:23;;;;;;;21.02;8.35;;;9.40;99.90;;;;;;5012017;28;20096;-38
2022/11/06 03:38:51;;;;;;;20.63;8.30;;;9.40;99.90;;;;;;5011988;28;20082;-38
2022/11/06 03:41:20;;;;;;;15.95;8.15;;;9.40;99.90;;;;;;5011869;28;20481;-38
2022/11/06 03:43:47;;;;;;;18.38;8.88;;;9.40;99.90;;;;;;4993087;28;20058;-38
2022/11/06 03:46:18;;;;;;;20.30;8.20;;;9.40;99.90;;;;;;4977788;28;20156;-38
2022/11/06 03:48:46;;;;;;;15.27;7.88;;;9.40;99.90;;;;;;4994666;28;20054;-39
2022/11/06 03:51:14;;;;;;;19.77;7.70;;;9.40;99.90;;;;;;5011881;28;20129;-38
2022/11/06 03:53:45;;;;;;;22.27;8.63;;;9.40;99.90;;;;;;4994220;28;20057;-38
2022/11/06 03:56:14;;;;;;;14.45;7.85;;;9.40;99.90;;;;;;4994548;28;20050;-38
2022/11/06 03:58:43;;;;;;;15.05;7.45;;;9.40;99.90;;;;;;4995219;28;20053;-39
2022/11/06 04:01:10;;;;;;;19.27;7.85;;;9.30;99.90;;;;;;5012165;28;20498;-39
2022/11/06 04:03:41;;;;;;;22.75;8.73;;;9.30;99.90;;;;;;4993330;28;20456;-39
2022/11/06 04:06:10;;;;;;;18.88;8.13;;;9.30;99.90;;;;;;4994561;28;20068;-39
2022/11/06 04:14:07;;;;;;;18.50;7.72;;;9.30;99.90;;;;;;5014975;28;20054;-39
2022/11/06 04:16:35;;;;;;;21.10;8.23;;;9.30;99.90;;;;;;5012457;28;20088;-38
2022/11/06 04:19:02;;;;;;;17.27;7.75;;;9.30;99.90;;;;;;5011696;28;20573;-39
2022/11/06 04:21:34;;;;;;;17.88;7.53;;;9.30;99.90;;;;;;4994121;28;20046;-39
2022/11/06 04:27:05;;;;;;;15.10;7.20;;;9.30;99.90;;;;;;5011157;28;20403;-39
2022/11/06 04:29:39;;;;;;;20.02;7.05;;;9.30;99.90;;;;;;4978121;28;20054;-39
2022/11/06 04:32:08;;;;;;;18.67;7.30;;;9.30;99.90;;;;;;5005099;28;20085;-38
2022/11/06 04:34:39;;;;;;;14.45;7.35;;;9.30;99.90;;;;;;4994674;28;20077;-39
2022/11/06 04:37:07;;;;;;;16.27;6.93;;;9.30;99.90;;;;;;5011384;28;20115;-38
2022/11/06 04:39:37;;;;;;;18.08;7.90;;;9.30;99.90;;;;;;5011577;28;20548;-39
2022/11/06 04:42:08;;;;;;;19.17;7.97;;;9.30;99.90;;;;;;5012271;28;20049;-38
2022/11/06 04:44:37;;;;;;;17.00;6.82;;;9.30;99.90;;;;;;4994632;28;20466;-39
2022/11/06 04:47:04;;;;;;;19.67;7.10;;;9.30;99.90;;;;;;5009884;28;20132;-39
2022/11/06 04:49:32;;;;;;;17.05;6.72;;;9.30;99.90;;;;;;5011337;28;20502;-40
2022/11/06 04:51:59;;;;;;;15.88;6.57;;;9.30;99.90;;;;;;5010464;28;20050;-39
2022/11/06 04:54:26;;;;;;;17.40;7.10;;;9.30;99.90;;;;;;5011123;28;20089;-39
2022/11/06 04:56:56;;;;;;;22.75;7.50;;;9.30;99.90;;;;;;5011755;28;20514;-40
2022/11/06 04:59:25;;;;;;;16.30;6.93;;;9.40;99.90;;;;;;5011615;28;20046;-40
2022/11/06 05:01:51;;;;;;;18.00;6.72;;;9.30;99.90;;;;;;5002127;28;20073;-39
2022/11/06 05:04:19;;;;;;;12.95;6.65;;;9.30;99.90;;;;;;5011962;28;20085;-39
2022/11/06 05:06:46;;;;;;;21.52;6.45;;;9.30;99.90;;;;;;4994025;28;20050;-39
2022/11/06 05:09:13;;;;;;;19.50;6.65;;;9.30;99.90;;;;;;4996445;28;20065;-40
2022/11/06 05:11:39;;;;;;;11.35;5.75;;;9.30;99.90;;;;;;5015577;28;20107;-42
2022/11/06 05:14:06;;;;;;;17.60;6.95;;;9.30;99.90;;;;;;5013387;28;20165;-40
2022/11/06 05:16:34;;;;;;;14.05;6.07;;;9.30;99.90;;;;;;5014603;28;20121;-40
2022/11/06 05:19:01;;;;;;;15.98;5.97;;;9.30;99.90;;;;;;4997811;28;20077;-39
2022/11/06 05:24:12;;;;;;;19.00;6.10;;;9.30;99.90;;;;;;5015189;28;20041;-41
2022/11/06 05:26:39;;;;;;;21.33;6.13;;;9.30;99.90;;;;;;4996735;28;20045;-41
2022/11/06 05:29:06;;;;;;;17.60;6.20;;;9.30;99.90;;;;;;4996400;28;20137;-41
2022/11/06 05:31:34;;;;;;;20.35;6.45;;;9.30;99.90;;;;;;4993795;28;20093;-40
2022/11/06 05:34:00;;;;;;;10.75;4.72;;;9.30;99.90;;;;;;4995474;28;20093;-39
2022/11/06 05:36:27;;;;;;;15.05;5.50;;;9.30;99.90;;;;;;5011276;28;20111;-39
2022/11/06 05:38:54;;;;;;;17.13;5.90;;;9.30;99.90;;;;;;5014007;28;20133;-40
2022/11/06 05:41:21;;;;;;;16.90;5.18;;;9.30;99.90;;;;;;5013696;28;20125;-40
2022/11/06 05:43:47;;;;;;;16.67;5.10;;;9.30;99.90;;;;;;4996439;28;20092;-40
2022/11/06 05:46:14;;;;;;;16.27;5.03;;;9.40;99.90;;;;;;5014185;28;20057;-40
2022/11/06 05:48:42;;;;;;;18.75;6.45;;;9.40;99.90;;;;;;5014113;28;20473;-40
2022/11/06 05:51:09;;;;;;;14.98;4.40;;;9.40;99.90;;;;;;5014562;28;20101;-40
2022/11/06 05:53:36;;;;;;;18.40;5.00;;;9.40;99.90;;;;;;5014412;28;20137;-40
2022/11/06 05:56:03;;;;;;;13.85;4.40;;;9.40;99.90;;;;;;5011373;28;20054;-40
2022/11/06 05:58:30;;;;;;;17.88;4.60;;;9.40;99.90;;;;;;5014728;28;20050;-40
2022/11/06 06:00:57;;;;;;;16.45;4.95;;;9.40;99.90;;;;;;4986808;28;20469;-39
2022/11/06 06:03:24;;;;;;;15.73;4.80;;;9.50;99.90;;;;;;4996393;28;20077;-40
2022/11/06 06:05:52;;;;;;;14.50;4.30;;;9.40;99.90;;;;;;5014486;28;20077;-40
2022/11/06 06:08:19;;;;;;;14.43;4.00;;;9.50;99.90;;;;;;4983469;28;20561;-40
2022/11/06 06:10:46;;;;;;;17.58;4.38;;;9.50;99.90;;;;;;4998921;28;20406;-39
2022/11/06 06:13:13;;;;;;;20.98;4.63;;;9.50;99.90;;;;;;5002650;28;20046;-40
2022/11/06 06:15:40;;;;;;;11.07;4.30;;;9.50;99.90;;;;;;4996911;28;20053;-40
2022/11/06 06:18:07;;;;;;;12.52;4.88;;;9.50;99.90;;;;;;5013705;28;20049;-39
2022/11/06 06:20:34;;;;;;;12.30;4.07;;;9.60;99.90;;;;;;4995836;28;20095;-41
2022/11/06 06:23:02;;;;;;;15.30;4.97;;;9.50;99.90;;;;;;5014389;28;20554;-39
2022/11/06 06:25:29;;;;;;;11.88;3.80;;;9.50;99.90;;;;;;5011239;28;20077;-40
2022/11/06 06:27:56;;;;;;;10.25;4.20;;;9.60;99.90;;;;;;4991519;28;20132;-40
2022/11/06 06:30:23;;;;;;;14.98;4.28;;;9.60;99.90;;;;;;4995017;28;20097;-40
2022/11/06 06:32:50;;;;;;;12.35;4.25;;;9.60;99.90;;;;;;5007942;28;20455;-40
2022/11/06 06:35:17;;;;;;;14.65;4.40;;;9.70;99.90;;;;;;4995162;28;20081;-40
2022/11/06 06:37:44;;;;;;;17.38;4.20;;;9.60;99.90;;;;;;4994248;28;20049;-40
2022/11/06 06:40:12;;;;;;;18.40;4.00;;;9.60;99.90;;;;;;5005968;28;20133;-40
2022/11/06 06:42:39;;;;;;;16.92;4.10;;;9.70;99.90;;;;;;4976834;28;20058;-39
2022/11/06 06:45:06;;;;;;;14.68;4.15;;;9.70;99.90;;;;;;4982899;28;20057;-40
2022/11/06 06:47:33;;;;;;;15.85;4.13;;;9.70;99.90;;;;;;4987777;28;20128;-40
2022/11/06 06:50:00;;;;;;;15.60;4.00;;;9.70;99.90;;;;;;5010624;28;20073;-40
2022/11/06 06:52:26;;;;;;;16.92;4.25;;;9.70;99.90;;;;;;5013168;28;20085;-40
2022/11/06 06:54:53;;;;;;;9.43;3.83;;;9.80;99.90;;;;;;5011524;28;20423;-39
2022/11/06 06:57:21;;;;;;;15.13;4.55;;;9.80;99.90;;;;;;5012524;28;20069;-41
2022/11/06 06:59:48;;;;;;;13.80;3.88;;;9.80;99.90;;;;;;5012640;28;20038;-40
2022/11/06 07:02:15;;;;;;;15.38;4.30;;;9.80;99.90;;;;;;4996610;28;20641;-40
2022/11/06 07:04:41;;;;;;;24.45;3.78;;;9.80;99.90;;;;;;5011914;28;20558;-42
2022/11/06 07:07:08;;;;;;;11.80;3.63;;;9.80;99.90;;;;;;5012374;28;20104;-41
2022/11/06 07:09:35;;;;;;;16.52;4.80;;;9.80;99.90;;;;;;4993742;28;20173;-40
2022/11/06 07:12:02;;;;;;;14.85;4.10;;;9.90;99.90;;;;;;5007242;28;20061;-41
2022/11/06 07:14:30;;;;;;;13.73;3.53;;;9.90;99.90;;;;;;5010558;28;20142;-40
2022/11/06 07:16:57;;;;;;;10.98;3.47;;;9.90;99.90;;;;;;4994805;28;20449;-40
2022/11/06 07:19:24;;;;;;;11.50;3.83;;;9.90;99.90;;;;;;5011652;28;20077;-40
2022/11/06 07:21:51;;;;;;;13.13;3.75;;;9.90;99.90;;;;;;4994792;28;20103;-39
2022/11/06 07:24:18;;;;;;;12.50;3.45;;;10.00;99.90;;;;;;4995790;28;20512;-39
2022/11/06 07:26:45;;;;;;;16.33;3.47;;;10.00;99.90;;;;;;4994100;28;20088;-40
2022/11/06 07:29:11;;;;;;;15.30;3.38;;;10.00;99.90;;;;;;4994711;28;20162;-39
2022/11/06 07:31:40;;;;;;;14.25;3.47;;;10.10;99.90;;;;;;5001806;28;20082;-39
2022/11/06 07:34:06;;;;;;;12.43;3.45;;;10.10;99.90;;;;;;4992896;28;20045;-39
2022/11/06 07:36:34;;;;;;;16.15;3.53;;;10.10;99.90;;;;;;5003166;28;20129;-39
2022/11/06 07:39:01;;;;;;;12.90;3.10;;;10.10;99.90;;;;;;4997199;28;20556;-39
2022/11/06 07:41:28;;;;;;;9.00;2.67;;;10.20;99.90;;;;;;5011277;28;20133;-39
2022/11/06 07:43:55;;;;;;;15.70;3.72;;;10.20;99.90;;;;;;5007769;28;20141;-39
2022/11/06 07:46:22;;;;;;;22.00;3.50;;;10.20;99.90;;;;;;4999530;28;20475;-40
2022/11/06 07:48:50;;;;;;;12.05;3.65;;;10.20;99.90;;;;;;5009810;28;20107;-39
2022/11/06 07:51:17;;;;;;;13.57;3.85;;;10.20;99.90;;;;;;4988531;28;20125;-39
2022/11/06 07:53:43;;;;;;;13.93;3.58;;;10.30;99.90;;;;;;4994856;28;20086;-39
2022/11/06 07:56:10;;;;;;;13.10;3.10;;;10.20;99.90;;;;;;5010024;28;20085;-39
2022/11/06 07:58:37;;;;;;;13.10;3.38;;;10.20;99.90;;;;;;4991393;28;20132;-40
2022/11/06 08:01:04;;;;;;;12.57;3.35;;;10.20;99.90;;;;;;4991469;28;20132;-41
2022/11/06 08:03:31;;;;;;;10.48;3.05;;;10.20;99.90;;;;;;4989402;28;20430;-40
2022/11/06 08:05:59;;;;;;;12.35;3.58;;;10.30;99.90;;;;;;5005342;28;20053;-39
2022/11/06 08:08:27;;;;;;;11.07;3.13;;;10.30;99.90;;;;;;4975265;28;20050;-39
2022/11/06 08:10:54;;;;;;;9.80;3.20;;;10.30;99.90;;;;;;5009330;28;20129;-39
2022/11/06 08:13:20;;;;;;;21.05;5.85;;;10.30;99.90;;;;;;5011648;28;20077;-39
2022/11/06 08:15:47;;;;;;;16.25;5.88;;;10.40;99.90;;;;;;5012156;28;20096;-39
2022/11/06 08:18:14;;;;;;;21.35;9.15;;;10.40;99.90;;;;;;4992358;28;20113;-39
2022/11/06 08:20:41;;;;;;;11.20;3.40;;;10.40;99.90;;;;;;4994254;28;20081;-39
2022/11/06 08:23:11;;;;;;;17.90;4.72;;;10.40;99.90;;;;;;4993740;28;20124;-41
2022/11/06 08:25:38;;;;;;;20.85;6.07;;;10.40;99.90;;;;;;5011693;28;20054;-38
2022/11/06 08:28:05;;;;;;;15.98;4.25;;;10.40;99.90;;;;;;5010787;28;20045;-40
2022/11/06 08:30:32;;;;;;;20.48;5.78;;;10.40;99.90;;;;;;4990812;28;20089;-40
2022/11/06 08:33:00;;;;;;;18.05;5.00;;;10.50;99.90;;;;;;5010440;28;20050;-41
2022/11/06 08:35:27;;;;;;;13.35;5.07;;;10.40;99.90;;;;;;4979859;28;20494;-39
2022/11/06 08:37:53;;;;;;;16.40;4.50;;;10.40;99.90;;;;;;4981979;28;20054;-40
2022/11/06 08:40:22;;;;;;;15.27;3.85;;;10.40;99.90;;;;;;5010197;28;20077;-40
2022/11/06 08:42:48;;;;;;;14.23;3.78;;;10.40;99.90;;;;;;4992458;28;20061;-40
2022/11/06 08:45:15;;;;;;;10.55;3.47;;;10.40;99.90;;;;;;4992733;28;20053;-40
2022/11/06 08:47:42;;;;;;;15.93;4.57;;;10.40;99.90;;;;;;4998274;28;20088;-39
2022/11/06 08:50:09;;;;;;;12.77;4.45;;;10.40;99.90;;;;;;4998540;28;20085;-40
2022/11/06 08:52:36;;;;;;;11.02;3.80;;;10.40;99.90;;;;;;4997811;28;20119;-39
2022/11/06 08:55:03;;;;;;;10.85;3.38;;;10.40;99.90;;;;;;5014648;28;20679;-43
2022/11/06 08:57:32;;;;;;;11.60;3.38;;;10.40;99.90;;;;;;5013383;28;20053;-40
2022/11/06 08:59:58;;;;;;;9.77;2.95;;;10.50;99.90;;;;;;5005083;28;20054;-40
2022/11/06 09:02:25;;;;;;;11.05;3.40;;;10.50;99.90;;;;;;5006634;28;20100;-40
2022/11/06 09:04:52;;;;;;;12.30;3.60;;;10.50;99.90;;;;;;4998379;28;20097;-41
2022/11/06 09:07:19;;;;;;;9.68;2.92;;;10.50;99.90;;;;;;4994195;28;20097;-39
2022/11/06 09:09:46;;;;;;;12.80;3.30;;;10.60;99.90;;;;;;5009396;28;20046;-39
2022/11/06 09:12:12;;;;;;;23.75;4.35;;;10.60;99.90;;;;;;5015108;28;20796;-40
2022/11/06 09:14:40;;;;;;;14.30;3.50;;;10.60;99.90;;;;;;4991652;28;20459;-40
2022/11/06 09:17:07;;;;;;;11.65;3.65;;;10.60;99.90;;;;;;5008008;28;20141;-40
2022/11/06 09:19:34;;;;;;;18.58;8.18;;;10.70;99.90;;;;;;5010314;28;20080;-41
2022/11/06 09:22:01;;;;;;;14.70;7.40;;;10.80;99.90;;;;;;4999506;28;20082;-42
2022/11/06 09:24:28;;;;;;;15.60;5.70;;;10.90;99.90;;;;;;4991099;28;20085;-39
2022/11/06 09:26:55;;;;;;;18.17;8.07;;;11.10;99.90;;;;;;4994092;28;20204;-42
2022/11/06 09:29:22;;;;;;;28.40;18.50;;;11.30;99.90;;;;;;5012501;28;20131;-40
2022/11/06 09:31:50;;;;;;;14.45;5.45;;;11.40;99.90;;;;;;5014532;28;20450;-39
2022/11/06 09:34:17;;;;;;;12.55;3.75;;;11.60;99.90;;;;;;5007492;28;20140;-40
2022/11/06 09:36:43;;;;;;;11.48;4.28;;;11.70;99.90;;;;;;5004858;28;20077;-40
2022/11/06 09:39:10;;;;;;;14.95;2.80;;;11.70;99.90;;;;;;5012987;28;20490;-40
2022/11/06 09:41:42;;;;;;;10.60;3.05;;;11.70;99.90;;;;;;5007418;28;20054;-39
2022/11/06 09:44:19;;;;;;;9.40;2.90;;;11.80;99.90;;;;;;5002368;28;20451;-39
2022/11/06 09:46:46;;;;;;;10.45;3.17;;;11.70;99.90;;;;;;5011831;28;20049;-40
2022/11/06 09:49:18;;;;;;;11.45;3.00;;;11.70;99.90;;;;;;4996559;28;20085;-39
2022/11/06 09:51:47;;;;;;;10.18;2.70;;;11.70;99.90;;;;;;4996961;28;20085;-39
2022/11/06 09:54:16;;;;;;;10.02;2.88;;;11.60;99.90;;;;;;5007178;28;20093;-40
2022/11/06 09:56:43;;;;;;;9.45;3.00;;;11.60;99.90;;;;;;4995954;28;20054;-39
2022/11/06 09:59:11;;;;;;;12.63;2.70;;;11.60;99.90;;;;;;5009331;28;20099;-40
2022/11/06 10:01:41;;;;;;;10.10;3.40;;;11.70;99.90;;;;;;5004193;28;20097;-39
2022/11/06 10:04:18;;;;;;;12.05;4.63;;;11.60;99.90;;;;;;4990019;28;20457;-40
2022/11/06 10:06:44;;;;;;;9.82;2.47;;;11.60;99.90;;;;;;4989913;28;20042;-40
2022/11/06 10:09:12;;;;;;;11.98;2.53;;;11.50;99.90;;;;;;4982605;28;20137;-40
2022/11/06 10:11:52;;;;;;;9.38;2.83;;;11.50;99.90;;;;;;4998882;28;20487;-40
2022/11/06 10:14:25;;;;;;;7.60;2.10;;;11.50;99.90;;;;;;4992403;28;20068;-40
2022/11/06 10:16:54;;;;;;;11.07;3.70;;;11.50;99.90;;;;;;5008340;28;20533;-39
2022/11/06 10:19:25;;;;;;;10.63;2.40;;;11.50;99.90;;;;;;4994609;28;20064;-40
2022/11/06 10:21:56;;;;;;;10.60;2.35;;;11.60;99.90;;;;;;5000701;28;20047;-40
2022/11/06 10:24:24;;;;;;;5.47;2.15;;;11.60;99.90;;;;;;5013750;28;20143;-41
2022/11/06 10:26:53;;;;;;;9.70;2.53;;;11.60;99.90;;;;;;5008526;28;20494;-40
2022/11/06 10:29:33;;;;;;;10.00;2.47;;;11.60;99.90;;;;;;5002619;28;20410;-39
2022/11/06 10:32:08;;;;;;;12.70;3.08;;;11.60;99.90;;;;;;5004397;28;20505;-38
2022/11/06 10:34:37;;;;;;;9.40;2.60;;;11.60;99.90;;;;;;5006287;28;20140;-38
2022/11/06 10:37:05;;;;;;;8.63;2.80;;;11.60;99.90;;;;;;4989533;28;20496;-38
2022/11/06 10:39:34;;;;;;;10.30;3.30;;;11.60;99.90;;;;;;4991135;28;20089;-38
2022/11/06 10:42:02;;;;;;;9.90;2.90;;;11.60;99.90;;;;;;5001351;28;20403;-38
2022/11/06 10:44:31;;;;;;;15.13;4.13;;;11.60;99.90;;;;;;4996374;28;20487;-37
2022/11/06 10:47:00;;;;;;;13.35;3.00;;;11.60;99.90;;;;;;4998777;28;20145;-38
2022/11/06 10:49:33;;;;;;;10.30;2.30;;;11.60;99.90;;;;;;5000537;28;20511;-38
2022/11/06 10:52:21;;;;;;;9.25;2.22;;;11.60;99.90;;;;;;4999907;28;20069;-38
2022/11/06 10:54:54;;;;;;;12.07;2.50;;;11.60;99.90;;;;;;5001483;28;20180;-37
2022/11/06 10:57:26;;;;;;;9.82;2.70;;;11.50;99.90;;;;;;5004834;28;20490;-38
2022/11/06 10:59:53;;;;;;;9.32;2.30;;;11.50;99.90;;;;;;4991377;28;20104;-38
2022/11/06 11:02:24;;;;;;;12.75;2.85;;;11.50;99.90;;;;;;5004022;28;20133;-39
2022/11/06 11:04:50;;;;;;;10.15;2.85;;;11.50;99.90;;;;;;4986067;28;20056;-39
2022/11/06 11:07:19;;;;;;;12.50;3.40;;;11.50;99.90;;;;;;5006723;28;21085;-41
2022/11/06 11:09:48;;;;;;;10.15;3.08;;;11.60;99.90;;;;;;4982787;28;20549;-41
2022/11/06 11:12:20;;;;;;;19.02;12.45;;;11.70;99.90;;;;;;5006683;28;20097;-41
2022/11/06 11:14:53;;;;;;;9.98;3.20;;;11.70;99.90;;;;;;4989981;28;20088;-40
2022/11/06 11:17:20;;;;;;;14.55;3.53;;;11.80;99.90;;;;;;4985156;28;20080;-40
2022/11/06 11:19:47;;;;;;;9.10;2.90;;;11.80;99.90;;;;;;4987987;28;20100;-42
2022/11/06 11:22:19;;;;;;;13.18;4.20;;;11.80;99.90;;;;;;5002446;28;20078;-40
2022/11/06 11:25:00;;;;;;;11.73;3.20;;;11.80;99.90;;;;;;4988658;28;20049;-44
2022/11/06 11:27:27;;;;;;;16.17;4.43;;;11.80;99.90;;;;;;4989820;28;20069;-40
2022/11/06 11:29:54;;;;;;;14.70;4.28;;;11.80;99.90;;;;;;5002735;28;20589;-41
2022/11/06 11:32:21;;;;;;;6.30;2.60;;;11.90;99.90;;;;;;5008676;28;20078;-43
2022/11/06 11:34:49;;;;;;;7.35;2.60;;;11.90;99.90;;;;;;4986359;28;20149;-42
2022/11/06 11:37:24;;;;;;;12.82;4.15;;;11.90;99.90;;;;;;5006964;28;20054;-41
2022/11/06 11:39:51;;;;;;;13.20;4.03;;;11.90;99.90;;;;;;4989761;28;20144;-42
2022/11/06 11:42:26;;;;;;;13.18;4.43;;;11.90;99.90;;;;;;4991248;28;20077;-40
2022/11/06 11:45:11;;;;;;;11.82;4.00;;;12.00;99.90;;;;;;5004418;28;20445;-41
2022/11/06 11:47:38;;;;;;;6.45;3.40;;;12.00;99.90;;;;;;5008982;28;20528;-40
2022/11/06 11:50:18;;;;;;;8.48;3.20;;;12.10;99.90;;;;;;4991479;28;20173;-40
2022/11/06 11:52:46;;;;;;;9.27;3.03;;;12.20;99.90;;;;;;5005041;28;20057;-39
2022/11/06 11:55:14;;;;;;;12.40;4.05;;;12.20;99.90;;;;;;4998948;28;20633;-39
2022/11/06 11:57:42;;;;;;;12.88;4.07;;;12.20;99.90;;;;;;5002352;28;20083;-40
2022/11/06 12:00:14;;;;;;;8.63;3.45;;;12.30;99.90;;;;;;4998988;28;20105;-40
2022/11/06 12:02:42;;;;;;;8.18;2.85;;;12.30;99.90;;;;;;5004093;28;20053;-41
2022/11/06 12:05:12;;;;;;;143.65;76.15;;;12.30;99.90;;;;;;4990096;28;20057;-40
2022/11/06 12:07:41;;;;;;;53.08;28.88;;;12.30;99.90;;;;;;4996420;28;20120;-40
2022/11/06 12:10:19;;;;;;;11.73;4.82;;;12.40;99.90;;;;;;4988754;28;20081;-39
2022/11/06 12:12:48;;;;;;;7.63;2.45;;;12.40;99.90;;;;;;5007178;28;20046;-40
2022/11/06 12:15:19;;;;;;;12.55;2.50;;;12.40;99.90;;;;;;5000525;28;20050;-40
2022/11/06 12:17:49;;;;;;;9.43;2.53;;;12.50;99.90;;;;;;5006022;28;20045;-40
2022/11/06 12:20:17;;;;;;;9.25;2.20;;;12.50;99.90;;;;;;4995039;28;20450;-41
2022/11/06 12:22:45;;;;;;;8.75;2.03;;;12.50;99.90;;;;;;5007689;28;20077;-40
2022/11/06 12:25:16;;;;;;;9.85;2.38;;;12.50;99.90;;;;;;5000508;28;20053;-40
2022/11/06 12:27:44;;;;;;;5.97;2.15;;;12.50;99.90;;;;;;4984236;28;20046;-39
2022/11/06 12:30:11;;;;;;;8.60;1.92;;;12.60;99.90;;;;;;5005740;28;20125;-40
2022/11/06 12:32:56;;;;;;;12.43;4.07;;;12.60;99.90;;;;;;4984265;28;20054;-40
2022/11/06 12:35:26;;;;;;;11.10;2.50;;;12.70;99.90;;;;;;5000310;28;20050;-40
2022/11/06 12:37:58;;;;;;;10.27;2.50;;;12.70;99.90;;;;;;5006144;28;20133;-39
2022/11/06 12:40:28;;;;;;;10.30;2.20;;;12.70;99.90;;;;;;5004412;28;20060;-39
2022/11/06 12:43:04;;;;;;;12.38;2.92;;;12.70;99.90;;;;;;4985761;28;20081;-40
2022/11/06 12:45:40;;;;;;;8.60;2.20;;;12.70;99.90;;;;;;4985552;28;20089;-40
2022/11/06 12:48:17;;;;;;;8.82;2.20;;;12.60;99.90;;;;;;4998011;28;20133;-39
2022/11/06 12:50:45;;;;;;;11.20;2.53;;;12.60;99.90;;;;;;5003325;28;20442;-40
2022/11/06 12:53:38;;;;;;;8.05;2.63;;;12.50;99.90;;;;;;4985142;28;20506;-39
2022/11/06 12:56:13;;;;;;;10.35;2.63;;;12.50;99.90;;;;;;4996344;28;20069;-40
2022/11/06 12:59:01;;;;;;;8.18;3.10;;;12.50;99.90;;;;;;5007154;28;20053;-40
2022/11/06 13:01:39;;;;;;;10.27;2.92;;;12.50;99.90;;;;;;5002841;28;20054;-42
2022/11/06 13:04:45;;;;;;;5.47;1.77;;;12.50;99.90;;;;;;4989756;28;20145;-40